Sunday, November 23, 2014, 3:44 PM EST

KSHD, Staunton / Shenandoah

Location: Weyers Cave, VA, United States Lat: 38.267
Local Time: 3:44 PM EST (20:44 GMT) Lon: -78.9
Time Zone: US/Eastern Elev: 1200 ft

Show me the last for .
Show Decoded

2014-11-23 15:15 METAR KSHD 232015Z AUTO 16008KT 10SM SCT065 14/07 A3005 RMK AO2 T01380070 =
2014-11-23 14:55 METAR KSHD 231955Z AUTO 16010KT 10SM SCT065 15/07 A3006 RMK AO2 T01450067 =
2014-11-23 14:35 METAR KSHD 231935Z AUTO 19009G14KT 10SM 15/07 A3006 RMK AO2 T01500068 =
2014-11-23 14:15 METAR KSHD 231915Z AUTO RMK AO2 PWINO PNO TSNO =
2014-11-23 13:55 METAR KSHD 231855Z AUTO RMK AO2 PWINO PNO TSNO =
2014-11-23 13:35 METAR KSHD 231835Z AUTO RMK AO2 PWINO PNO TSNO =
2014-11-23 13:15 METAR KSHD 231815Z AUTO 17004KT 10SM CLR 15/02 A3010 RMK AO2 T01510021 =
2014-11-23 12:55 METAR KSHD 231755Z AUTO 00000KT 10SM CLR 14/01 A3011 RMK AO2 T01360008 10136
                 20018 =
2014-11-23 12:35 METAR KSHD 231735Z AUTO 00000KT 10SM CLR 13/00 A3012 RMK AO2 T01310000 =
2014-11-23 12:15 METAR KSHD 231715Z AUTO 00000KT 10SM CLR 13/00 A3013 RMK AO2 T01261002 =
2014-11-23 11:35 METAR KSHD 231635Z AUTO 00000KT 10SM CLR 12/M01 A3016 RMK AO2 T01211014 =
2014-11-23 11:15 METAR KSHD 231615Z AUTO 00000KT 10SM CLR 11/M03 A3017 RMK AO2 T01061027 =
2014-11-23 10:55 METAR KSHD 231555Z AUTO 00000KT 10SM CLR 10/M03 A3017 RMK AO2 T01001032 =
2014-11-23 10:35 METAR KSHD 231535Z AUTO 00000KT 10SM CLR 10/M03 A3019 RMK AO2 T00951031 =
2014-11-23 10:15 METAR KSHD 231515Z AUTO 00000KT 10SM CLR 09/M03 A3019 RMK AO2 T00891033 =
2014-11-23 09:55 METAR KSHD 231455Z AUTO 00000KT 10SM CLR 08/M03 A3019 RMK AO2 T00801030 =
2014-11-23 09:35 METAR KSHD 231435Z AUTO 00000KT 10SM CLR 08/M03 A3020 RMK AO2 T00791032 =
2014-11-23 09:15 METAR KSHD 231415Z AUTO 00000KT 10SM CLR 07/M04 A3020 RMK AO2 T00711040 =
2014-11-23 08:55 METAR KSHD 231355Z AUTO 00000KT 10SM CLR 07/M04 A3020 RMK AO2 T00651040 =
2014-11-23 08:35 METAR KSHD 231335Z AUTO 00000KT 10SM CLR 04/M04 A3021 RMK AO2 T00441036 =
2014-11-23 08:15 METAR KSHD 231315Z AUTO 00000KT 10SM CLR 03/M04 A3021 RMK AO2 T00261041 =
2014-11-23 07:55 METAR KSHD 231255Z AUTO 00000KT 10SM CLR 02/M05 A3020 RMK AO2 T00181055 =
2014-11-23 07:35 METAR KSHD 231235Z AUTO 00000KT 10SM CLR 03/M06 A3020 RMK AO2 T00261061 =
2014-11-23 07:15 METAR KSHD 231215Z AUTO 00000KT 10SM CLR 04/M06 A3022 RMK AO2 T00371065 =
2014-11-23 06:55 METAR KSHD 231155Z AUTO 00000KT 10SM CLR 04/M07 A3022 RMK AO2 T00351067 10046
                 20023 =
2014-11-23 06:35 METAR KSHD 231135Z AUTO 17003KT 10SM CLR 04/M07 A3022 RMK AO2 T00361068 =
2014-11-23 06:15 METAR KSHD 231115Z AUTO 22004KT 10SM CLR 04/M07 A3022 RMK AO2 T00351068 =
2014-11-23 05:55 METAR KSHD 231055Z AUTO 18006KT 10SM CLR 03/M06 A3022 RMK AO2 T00321065 =
2014-11-23 05:15 METAR KSHD 231015Z AUTO 17006KT 10SM CLR 04/M07 A3021 RMK AO2 T00391070 =
2014-11-23 04:55 METAR KSHD 230955Z AUTO 18006KT 10SM CLR 03/M07 A3021 RMK AO2 T00341070 =
2014-11-23 04:35 METAR KSHD 230935Z AUTO 17005KT 10SM SCT100 03/M07 A3020 RMK AO2 T00341068 =
2014-11-23 04:15 METAR KSHD 230915Z AUTO 17005KT 10SM BKN100 03/M07 A3021 RMK AO2 T00331066 =
2014-11-23 03:55 METAR KSHD 230855Z AUTO 17003KT 10SM BKN100 04/M07 A3021 RMK AO2 T00401067 =
2014-11-23 03:35 METAR KSHD 230835Z AUTO 19004KT 10SM OVC090 05/M07 A3021 RMK AO2 T00451070 =
2014-11-23 03:15 METAR KSHD 230815Z AUTO 17006KT 10SM OVC090 05/M07 A3022 RMK AO2 T00451070 =
2014-11-23 02:55 METAR KSHD 230755Z AUTO 17004KT 10SM OVC090 04/M07 A3022 RMK AO2 T00351066 =
2014-11-23 02:35 METAR KSHD 230735Z AUTO 00000KT 10SM OVC090 04/M07 A3024 RMK AO2 T00371072 =
2014-11-23 02:15 METAR KSHD 230715Z AUTO 15004KT 10SM OVC100 04/M07 A3024 RMK AO2 T00411075 =
2014-11-23 01:55 METAR KSHD 230655Z AUTO 17007KT 10SM OVC100 03/M07 A3025 RMK AO2 T00281072 =
2014-11-23 01:35 METAR KSHD 230635Z AUTO 17006KT 10SM OVC100 03/M07 A3024 RMK AO2 T00341075 =
2014-11-23 01:15 METAR KSHD 230615Z AUTO 18006KT 10SM OVC100 03/M07 A3024 RMK AO2 T00331075 =
2014-11-23 00:55 METAR KSHD 230555Z AUTO 17003KT 10SM OVC100 03/M08 A3024 RMK AO2 T00251076 10054
                 20011 401281099 =
2014-11-23 00:35 METAR KSHD 230535Z AUTO 18003KT 10SM BKN100 02/M08 A3025 RMK AO2 T00241078 =
2014-11-23 00:15 METAR KSHD 230515Z AUTO 00000KT 10SM SCT100 01/M08 A3024 RMK AO2 T00121078 =
2014-11-22 23:55 METAR KSHD 230455Z AUTO 16004KT 10SM CLR 03/M08 A3024 RMK AO2 T00301084 =
2014-11-22 23:35 METAR KSHD 230435Z AUTO 17004KT 10SM CLR 02/M08 A3025 RMK AO2 T00221081 =
2014-11-22 23:15 METAR KSHD 230415Z AUTO 17006KT 10SM CLR 01/M08 A3025 RMK AO2 T00121077 =
2014-11-22 22:55 METAR KSHD 230355Z AUTO 00000KT 10SM CLR 02/M08 A3025 RMK AO2 T00151080 =
2014-11-22 22:35 METAR KSHD 230335Z AUTO 17005KT 10SM CLR 02/M08 A3025 RMK AO2 T00231082 =
2014-11-22 22:15 METAR KSHD 230315Z AUTO 00000KT 10SM CLR 03/M08 A3026 RMK AO2 T00261081 =
2014-11-22 21:55 METAR KSHD 230255Z AUTO 00000KT 10SM SCT100 03/M08 A3028 RMK AO2 T00331082 =
2014-11-22 21:35 METAR KSHD 230235Z AUTO 17004KT 10SM OVC100 04/M08 A3028 RMK AO2 T00401080 =
2014-11-22 21:15 METAR KSHD 230215Z AUTO 00000KT 10SM OVC100 04/M09 A3028 RMK AO2 T00441086 =
2014-11-22 20:55 METAR KSHD 230155Z AUTO 00000KT 10SM BKN100 04/M08 A3028 RMK AO2 T00411085 =
2014-11-22 20:35 METAR KSHD 230135Z AUTO 23003KT 10SM BKN100 05/M09 A3028 RMK AO2 T00461087 =
2014-11-22 20:15 METAR KSHD 230115Z AUTO 18005KT 10SM SCT100 05/M09 A3027 RMK AO2 T00471086 =
2014-11-22 19:55 METAR KSHD 230055Z AUTO 18005KT 10SM CLR 05/M08 A3027 RMK AO2 T00451085 =
2014-11-22 19:35 METAR KSHD 230035Z AUTO 18006KT 10SM CLR 04/M08 A3028 RMK AO2 T00441084 =
2014-11-22 19:15 METAR KSHD 230015Z AUTO 19004KT 10SM CLR 05/M08 A3028 RMK AO2 T00451085 =
2014-11-22 18:55 METAR KSHD 222355Z AUTO 18004KT 10SM CLR 06/M09 A3027 RMK AO2 T00551087 10128
                 20055 =
2014-11-22 18:35 METAR KSHD 222335Z AUTO 17007KT 10SM CLR 06/M09 A3028 RMK AO2 T00591086 =
2014-11-22 18:15 METAR KSHD 222315Z AUTO 18006KT 10SM CLR 06/M09 A3028 RMK AO2 T00601086 =
2014-11-22 17:55 METAR KSHD 222255Z AUTO 18005KT 10SM CLR 06/M09 A3028 RMK AO2 T00641087 =
2014-11-22 17:35 METAR KSHD 222235Z AUTO 19007KT 10SM CLR 07/M09 A3029 RMK AO2 T00731087 =
2014-11-22 17:15 METAR KSHD 222215Z AUTO 20008KT 10SM CLR 08/M09 A3028 RMK AO2 T00811086 =
2014-11-22 16:55 METAR KSHD 222155Z AUTO 19008KT 10SM CLR 09/M08 A3028 RMK AO2 T00901085 =
2014-11-22 16:35 METAR KSHD 222135Z AUTO 19007KT 10SM CLR 10/M09 A3028 RMK AO2 T01021086 =
2014-11-22 16:15 METAR KSHD 222115Z AUTO 19008KT 10SM CLR 11/M09 A3029 RMK AO2 T01121086 =
2014-11-22 15:55 METAR KSHD 222055Z AUTO 19009KT 10SM CLR 11/M09 A3029 RMK AO2 T01141088 =

Support USWX by starting your Amazon purchase here.